createdAt,value
2022-08-09T00:01:39.880Z,55.43
2022-08-09T00:04:34.613Z,55.81
2022-08-09T00:07:18.622Z,55.83
2022-08-09T00:10:05.867Z,56.43
2022-08-09T00:12:54.620Z,56.86
2022-08-09T00:15:58.864Z,56.69
2022-08-09T00:18:42.180Z,56.67
2022-08-09T00:21:25.676Z,57.07
2022-08-09T00:24:09.198Z,57.32
2022-08-09T00:26:53.900Z,56.86
2022-08-09T00:29:39.189Z,57.44
2022-08-09T00:32:42.093Z,57.02
2022-08-09T00:35:25.338Z,57.36
2022-08-09T00:38:13.871Z,57.33
2022-08-09T00:40:58.491Z,57.29
2022-08-09T00:44:16.064Z,56.95
2022-08-09T00:46:57.740Z,57.37
2022-08-09T00:49:55.235Z,57.77
2022-08-09T00:52:39.738Z,57.93
2022-08-09T00:56:03.000Z,57.45
2022-08-09T00:58:27.818Z,57.91
2022-08-09T01:01:16.830Z,58.42
2022-08-09T01:04:08.031Z,59.14
2022-08-09T01:07:03.657Z,59.16
2022-08-09T01:10:00.034Z,59.43
2022-08-09T01:12:48.804Z,59.37
2022-08-09T01:15:51.730Z,59.10
2022-08-09T01:18:37.395Z,58.18
2022-08-09T01:21:44.751Z,57.64
2022-08-09T01:24:44.078Z,58.47
2022-08-09T01:27:37.296Z,58.05
2022-08-09T01:30:33.665Z,58.88
2022-08-09T01:33:30.499Z,58.54
2022-08-09T01:36:15.977Z,59.22
2022-08-09T01:39:02.633Z,59.59
2022-08-09T01:41:55.609Z,60.01
2022-08-09T01:44:46.010Z,59.63
2022-08-09T01:47:31.431Z,59.80
2022-08-09T01:50:14.909Z,60.71
2022-08-09T01:53:02.867Z,61.10
2022-08-09T01:56:04.470Z,60.57
2022-08-09T01:58:51.899Z,60.63
2022-08-09T02:01:59.539Z,60.84
2022-08-09T02:04:45.558Z,61.50
2022-08-09T02:08:41.353Z,61.05
2022-08-09T02:10:38.573Z,61.38
2022-08-09T02:13:26.124Z,60.78
2022-08-09T02:16:20.934Z,60.49
2022-08-09T02:19:18.834Z,60.29
2022-08-09T02:22:07.476Z,62.01
2022-08-09T02:24:54.859Z,61.51
2022-08-09T02:27:57.443Z,61.32
2022-08-09T02:30:46.355Z,61.16
2022-08-09T02:33:58.474Z,61.71
2022-08-09T02:36:42.229Z,61.13
2022-08-09T02:39:33.399Z,61.61
2022-08-09T02:42:28.478Z,61.19
2022-08-09T02:45:16.212Z,61.65
2022-08-09T02:48:04.217Z,62.17
2022-08-09T02:50:56.177Z,63.35
2022-08-09T02:53:52.919Z,64.67
2022-08-09T02:56:51.514Z,65.22
2022-08-09T02:59:40.020Z,65.99
2022-08-09T03:03:00.125Z,66.95
2022-08-09T03:05:45.073Z,67.61
2022-08-09T03:08:32.770Z,67.08
2022-08-09T03:11:29.584Z,67.20
2022-08-09T03:14:28.398Z,67.59
2022-08-09T03:17:16.439Z,66.41
2022-08-09T03:20:11.289Z,66.21
2022-08-09T03:22:58.295Z,65.79
2022-08-09T03:26:04.854Z,65.38
2022-08-09T03:28:55.429Z,65.50
2022-08-09T03:31:42.444Z,66.02
2022-08-09T03:34:26.046Z,65.75
2022-08-09T03:37:10.676Z,65.72
2022-08-09T03:40:14.027Z,65.92
2022-08-09T03:43:01.094Z,65.92
2022-08-09T03:46:04.404Z,66.64
2022-08-09T03:48:54.109Z,66.16
2022-08-09T03:51:55.107Z,66.85
2022-08-09T03:54:41.811Z,66.80
2022-08-09T03:57:25.192Z,66.72
2022-08-09T04:00:09.794Z,67.10
2022-08-09T04:02:57.360Z,67.32
2022-08-09T04:05:41.035Z,67.76
2022-08-09T04:08:29.109Z,68.17
2022-08-09T04:11:13.128Z,68.27
2022-08-09T04:14:53.117Z,68.66
2022-08-09T04:17:00.308Z,67.98
2022-08-09T04:19:51.424Z,67.75
2022-08-09T04:22:41.355Z,67.61
2022-08-09T04:25:27.525Z,67.52
2022-08-09T04:28:10.650Z,66.92
2022-08-09T04:30:55.629Z,66.73
2022-08-09T04:33:47.299Z,67.09
2022-08-09T04:36:36.453Z,66.71
2022-08-09T04:39:19.787Z,67.17
2022-08-09T04:42:03.561Z,66.96
2022-08-09T04:44:49.087Z,66.09
2022-08-09T04:47:45.226Z,66.34
2022-08-09T04:50:38.139Z,65.36
2022-08-09T04:53:22.670Z,65.54
2022-08-09T04:56:06.377Z,65.52
2022-08-09T04:58:50.838Z,65.16
2022-08-09T05:01:33.973Z,64.12
2022-08-09T05:04:17.225Z,63.86
2022-08-09T05:07:00.391Z,63.68
2022-08-09T05:09:49.708Z,63.56
2022-08-09T05:12:33.499Z,62.90
2022-08-09T05:15:38.835Z,62.63
2022-08-09T05:18:37.444Z,62.59
2022-08-09T05:21:24.891Z,62.04
2022-08-09T05:24:13.410Z,61.66
2022-08-09T05:26:58.965Z,60.97
2022-08-09T05:29:43.124Z,61.28
2022-08-09T05:32:30.247Z,62.11
2022-08-09T05:35:13.417Z,61.64
2022-08-09T05:37:58.345Z,63.23
2022-08-09T05:40:41.701Z,62.05
2022-08-09T05:43:28.955Z,61.41
2022-08-09T05:46:15.718Z,60.68
2022-08-09T05:48:59.382Z,60.06
2022-08-09T05:51:46.412Z,59.13
2022-08-09T05:54:29.810Z,58.12
2022-08-09T05:57:14.206Z,56.98
2022-08-09T06:00:02.124Z,55.21
2022-08-09T06:02:46.503Z,53.94
2022-08-09T06:05:57.368Z,53.49
2022-08-09T06:08:35.774Z,53.82
2022-08-09T06:11:20.514Z,52.54
2022-08-09T06:14:23.546Z,51.52
2022-08-09T06:17:09.262Z,51.47
2022-08-09T06:19:53.404Z,51.07
2022-08-09T06:22:37.254Z,49.78
2022-08-09T06:25:21.254Z,49.14
2022-08-09T06:28:05.506Z,48.83
2022-08-09T06:30:48.560Z,47.99
2022-08-09T06:33:40.898Z,47.35
2022-08-09T06:36:27.161Z,46.25
2022-08-09T06:39:12.448Z,45.47
2022-08-09T06:42:07.647Z,44.80
2022-08-09T06:44:54.357Z,44.95
2022-08-09T06:47:39.927Z,43.17
2022-08-09T06:50:26.542Z,43.15
2022-08-09T06:53:14.642Z,43.50
2022-08-09T06:55:59.285Z,42.71
2022-08-09T07:00:55.236Z,41.29
2022-08-09T07:01:54.478Z,42.37
2022-08-09T07:04:42.750Z,42.02
2022-08-09T07:08:00.085Z,39.27
2022-08-09T07:10:32.095Z,39.86
2022-08-09T07:13:27.646Z,39.92
2022-08-09T07:16:40.872Z,39.27
2022-08-09T07:19:23.087Z,37.62
2022-08-09T07:22:07.425Z,37.56
2022-08-09T07:24:55.920Z,36.36
2022-08-09T07:27:42.999Z,36.27
2022-08-09T07:30:36.608Z,36.22
2022-08-09T07:33:20.991Z,36.04
2022-08-09T07:36:04.459Z,34.72
2022-08-09T07:38:55.153Z,33.82
2022-08-09T07:41:43.214Z,31.75
2022-08-09T07:44:50.881Z,30.09
2022-08-09T07:47:31.335Z,27.88
2022-08-09T07:50:36.355Z,25.89
2022-08-09T07:53:36.428Z,24.09
2022-08-09T07:56:26.531Z,23.85
2022-08-09T07:59:15.724Z,22.31
2022-08-09T08:02:05.084Z,20.40
2022-08-09T08:04:49.345Z,19.81
2022-08-09T08:08:44.707Z,20.56
2022-08-09T08:10:40.246Z,20.23
2022-08-09T08:13:56.070Z,21.76
2022-08-09T08:16:51.061Z,20.87
2022-08-09T08:19:44.601Z,20.32
2022-08-09T08:22:29.339Z,18.88
2022-08-09T08:25:13.605Z,19.07
2022-08-09T08:27:57.535Z,18.87
2022-08-09T08:30:41.459Z,18.21
2022-08-09T08:33:26.009Z,18.24
2022-08-09T08:36:29.238Z,18.81
2022-08-09T08:39:13.938Z,19.12
2022-08-09T08:42:00.924Z,18.27
2022-08-09T08:44:46.295Z,19.37
2022-08-09T08:47:30.852Z,18.56
2022-08-09T08:50:18.681Z,18.94
2022-08-09T08:53:02.378Z,17.88
2022-08-09T08:55:47.275Z,17.81
2022-08-09T08:58:32.595Z,17.07
2022-08-09T09:01:20.750Z,17.26
2022-08-09T09:04:11.744Z,17.00
2022-08-09T09:06:58.929Z,16.58
2022-08-09T09:10:01.979Z,16.15
2022-08-09T09:12:50.125Z,17.05
2022-08-09T09:15:35.040Z,16.29
2022-08-09T09:18:18.128Z,16.13
2022-08-09T09:21:02.143Z,15.42
2022-08-09T09:23:49.964Z,14.85
2022-08-09T09:26:43.651Z,16.96
2022-08-09T09:29:58.035Z,17.50
2022-08-09T09:32:37.010Z,17.29
2022-08-09T09:35:21.587Z,16.57
2022-08-09T09:38:04.791Z,15.33
2022-08-09T09:40:49.582Z,15.28
2022-08-09T09:43:41.275Z,14.88
2022-08-09T09:46:43.564Z,14.37
2022-08-09T09:50:07.466Z,13.66
2022-08-09T09:52:53.984Z,13.28
2022-08-09T09:55:57.739Z,13.76
2022-08-09T09:58:50.168Z,14.28
2022-08-09T10:01:40.680Z,13.74
2022-08-09T10:04:30.908Z,15.55
2022-08-09T10:07:25.684Z,16.64
2022-08-09T10:10:09.649Z,17.57
2022-08-09T10:12:56.787Z,19.64
2022-08-09T10:16:08.928Z,19.60
2022-08-09T10:18:54.268Z,18.94
2022-08-09T10:21:45.860Z,19.58
2022-08-09T10:24:35.752Z,17.42
2022-08-09T10:27:24.894Z,17.19
2022-08-09T10:34:04.278Z,13.58
2022-08-09T10:36:21.698Z,15.01
2022-08-09T10:39:15.672Z,14.39
2022-08-09T10:42:01.543Z,14.83
2022-08-09T10:44:51.341Z,16.09
2022-08-09T10:48:16.332Z,15.27
2022-08-09T10:51:12.122Z,14.78
2022-08-09T10:54:04.951Z,16.20
2022-08-09T10:56:48.358Z,14.66
2022-08-09T10:59:43.089Z,15.36
2022-08-09T11:03:13.532Z,17.91
2022-08-09T11:06:18.712Z,18.44
2022-08-09T11:09:15.547Z,19.50
2022-08-09T11:12:14.918Z,19.71
2022-08-09T11:15:03.038Z,20.10
2022-08-09T11:17:56.818Z,19.68
2022-08-09T11:20:49.647Z,20.64
2022-08-09T11:24:00.020Z,20.62
2022-08-09T11:26:47.237Z,20.42
2022-08-09T11:30:06.334Z,21.25
2022-08-09T11:33:04.165Z,21.94
2022-08-09T11:35:56.532Z,22.32
2022-08-09T11:38:41.639Z,23.83
2022-08-09T11:41:38.391Z,22.99
2022-08-09T11:44:49.226Z,24.65
2022-08-09T11:47:46.549Z,24.50
2022-08-09T11:50:55.374Z,23.26
2022-08-09T11:54:00.620Z,24.53
2022-08-09T11:56:47.760Z,25.65
2022-08-09T11:59:33.597Z,25.36
2022-08-09T12:02:37.112Z,25.50
2022-08-09T12:05:23.081Z,25.01
2022-08-09T12:08:12.461Z,24.67
2022-08-09T12:11:05.037Z,24.34
2022-08-09T12:14:08.060Z,24.85
2022-08-09T12:16:56.321Z,25.97
2022-08-09T12:19:41.542Z,25.04
2022-08-09T12:22:26.639Z,24.76
2022-08-09T12:25:14.952Z,25.32
2022-08-09T12:29:15.549Z,23.69
2022-08-09T12:31:58.620Z,23.75
2022-08-09T12:34:33.459Z,24.19
2022-08-09T12:40:28.672Z,23.96
2022-08-09T12:43:15.383Z,24.23
2022-08-09T12:46:04.073Z,24.75
2022-08-09T12:48:47.758Z,26.14
2022-08-09T12:52:00.405Z,26.01
2022-08-09T12:56:11.157Z,25.99
2022-08-09T12:57:59.073Z,25.28
2022-08-09T13:00:48.493Z,25.50
2022-08-09T13:03:57.039Z,25.65
2022-08-09T13:06:39.288Z,26.33
2022-08-09T13:09:27.268Z,25.87
2022-08-09T13:12:14.044Z,24.48
2022-08-09T13:15:08.561Z,25.21
2022-08-09T13:18:05.501Z,24.56
2022-08-09T13:22:33.084Z,25.76
2022-08-09T13:24:16.694Z,25.08
2022-08-09T13:27:08.480Z,25.08
2022-08-09T13:30:03.081Z,25.41
2022-08-09T13:32:49.543Z,25.41
2022-08-09T13:36:39.026Z,24.52
2022-08-09T13:38:57.854Z,24.60
2022-08-09T13:41:58.265Z,24.98
2022-08-09T13:44:44.455Z,24.99
2022-08-09T13:47:48.979Z,25.49
2022-08-09T13:50:33.627Z,26.03
2022-08-09T13:53:18.272Z,25.59
2022-08-09T13:56:01.637Z,25.42
2022-08-09T13:58:45.573Z,25.94
2022-08-09T14:02:01.518Z,26.02
2022-08-09T14:04:33.484Z,26.38
2022-08-09T14:07:18.126Z,26.20
2022-08-09T14:10:01.360Z,25.84
2022-08-09T14:12:46.470Z,26.03
2022-08-09T14:16:06.508Z,25.20
2022-08-09T14:18:33.358Z,26.47
2022-08-09T14:21:18.632Z,25.83
2022-08-09T14:24:18.326Z,26.16
2022-08-09T14:27:19.921Z,26.04
2022-08-09T14:30:36.986Z,26.70
2022-08-09T14:33:11.557Z,25.94
2022-08-09T14:35:54.925Z,26.55
2022-08-09T14:38:38.255Z,25.56
2022-08-09T16:04:25.388Z,28.03
2022-08-09T16:07:12.668Z,28.47
2022-08-09T16:50:30.566Z,31.30
2022-08-09T16:52:28.621Z,31.68
2022-08-09T16:55:15.735Z,31.44
2022-08-09T16:58:08.733Z,31.27
2022-08-09T17:00:53.497Z,30.46
2022-08-09T17:03:38.131Z,31.16
2022-08-09T17:06:29.178Z,31.61
2022-08-09T17:09:44.948Z,32.19
2022-08-09T17:12:19.517Z,32.09
2022-08-09T17:15:31.514Z,32.39
2022-08-09T17:18:07.313Z,31.89
2022-08-09T17:20:53.993Z,31.86
2022-08-09T17:24:27.317Z,31.60
2022-08-09T17:26:42.045Z,31.61
2022-08-09T17:29:31.787Z,30.94
2022-08-09T17:32:26.490Z,30.79
2022-08-09T17:35:17.957Z,31.88
2022-08-09T17:38:02.258Z,31.77
2022-08-09T17:40:59.232Z,31.58
2022-08-09T17:43:46.882Z,30.84
2022-08-09T17:46:34.481Z,33.12
2022-08-09T17:49:18.788Z,33.14
2022-08-09T17:52:02.751Z,32.95
2022-08-09T17:54:46.956Z,33.53
2022-08-09T17:58:03.122Z,31.99
2022-08-09T18:00:46.466Z,32.64
2022-08-09T18:03:31.732Z,32.58
2022-08-09T18:06:30.875Z,33.15
2022-08-09T18:09:16.221Z,33.41
2022-08-09T18:12:14.399Z,34.34
2022-08-09T18:15:01.710Z,34.75
2022-08-09T18:18:03.666Z,35.36
2022-08-09T18:20:57.099Z,34.82
2022-08-09T18:24:11.406Z,36.06
2022-08-09T18:26:49.411Z,36.31
2022-08-09T18:30:39.573Z,35.25
2022-08-09T18:32:37.351Z,35.23
2022-08-09T18:35:20.522Z,36.11
2022-08-09T18:38:24.095Z,35.47
2022-08-09T18:41:10.525Z,36.06
2022-08-09T18:43:59.425Z,36.08
2022-08-09T18:47:07.759Z,36.25
2022-08-09T18:49:52.045Z,36.63
2022-08-09T18:52:35.715Z,37.20
2022-08-09T18:55:29.230Z,37.06
2022-08-09T18:58:32.078Z,37.88
2022-08-09T19:01:15.533Z,39.72
2022-08-09T19:04:06.306Z,39.81
2022-08-09T19:06:53.124Z,38.41
2022-08-09T19:10:14.173Z,38.51
2022-08-09T19:12:41.110Z,39.31
2022-08-09T19:15:28.766Z,39.48
2022-08-09T19:18:17.310Z,38.87
2022-08-09T19:21:16.651Z,40.06
2022-08-09T19:24:31.917Z,40.79
2022-08-09T19:27:10.804Z,40.62
2022-08-09T19:30:24.591Z,41.45
2022-08-09T19:33:00.771Z,42.03
2022-08-09T19:35:57.164Z,41.81
2022-08-09T19:38:41.841Z,41.78
2022-08-09T19:41:33.245Z,42.25
2022-08-09T19:44:20.087Z,41.95
2022-08-09T19:47:05.524Z,41.93
2022-08-09T19:50:09.844Z,42.03
2022-08-09T19:52:52.432Z,41.94
2022-08-09T19:55:52.974Z,42.32
2022-08-09T19:58:40.160Z,42.73
2022-08-09T20:01:24.534Z,43.16
2022-08-09T20:04:36.711Z,43.60
2022-08-09T20:07:21.118Z,44.18
2022-08-09T20:10:06.952Z,43.82
2022-08-09T20:13:01.139Z,44.16
2022-08-09T20:16:32.902Z,44.51
2022-08-09T20:19:03.909Z,44.79
2022-08-09T20:21:56.391Z,45.02
2022-08-09T20:24:41.044Z,45.45
2022-08-09T20:27:24.355Z,45.71
2022-08-09T20:30:14.036Z,45.54
2022-08-09T20:33:02.710Z,45.74
2022-08-09T20:35:50.719Z,45.73
2022-08-09T20:39:06.683Z,46.25
2022-08-09T20:41:38.081Z,46.54
2022-08-09T20:44:26.862Z,46.72
2022-08-09T20:47:45.652Z,47.78
2022-08-09T20:50:47.495Z,47.16
2022-08-09T20:53:35.821Z,47.37
2022-08-09T20:56:25.934Z,47.62
2022-08-09T20:59:09.963Z,47.63
2022-08-09T21:01:53.587Z,48.46
2022-08-09T21:05:51.486Z,47.76
2022-08-09T21:07:44.507Z,47.60
2022-08-09T21:10:30.454Z,48.22
2022-08-09T21:13:13.953Z,48.47
2022-08-09T21:15:57.367Z,48.32
2022-08-09T21:20:02.455Z,48.68
2022-08-09T21:21:56.378Z,48.60
2022-08-09T21:24:55.810Z,48.68
2022-08-09T21:27:52.713Z,48.74
2022-08-09T21:30:37.068Z,49.07
2022-08-09T21:33:23.604Z,49.51
2022-08-09T21:36:07.493Z,49.63
2022-08-09T21:38:57.561Z,50.15
2022-08-09T21:42:05.437Z,50.33
2022-08-09T21:44:46.062Z,50.24
2022-08-09T21:47:29.156Z,50.76
2022-08-09T21:50:17.369Z,50.14
2022-08-09T21:53:05.629Z,50.46
2022-08-09T21:55:48.999Z,50.28
2022-08-09T21:58:34.169Z,50.37
2022-08-09T22:01:26.126Z,50.66
2022-08-09T22:04:22.519Z,50.44
2022-08-09T22:07:39.948Z,50.36
2022-08-09T22:10:25.109Z,50.46
2022-08-09T22:13:11.544Z,50.85
2022-08-09T22:15:56.130Z,50.60
2022-08-09T22:18:53.080Z,50.77
2022-08-09T22:21:49.610Z,51.58
2022-08-09T22:24:33.686Z,52.07
2022-08-09T22:27:16.787Z,51.61
2022-08-09T22:30:00.138Z,51.57
2022-08-09T22:32:44.883Z,51.28
2022-08-09T22:36:01.956Z,52.98
2022-08-09T22:38:31.509Z,53.66
2022-08-09T22:41:14.690Z,52.67
2022-08-09T22:44:02.574Z,52.91
2022-08-09T22:48:14.810Z,53.17
2022-08-09T22:49:53.907Z,54.53
2022-08-09T22:52:37.166Z,54.99
2022-08-09T22:55:22.790Z,54.72
2022-08-09T22:58:09.168Z,54.84
2022-08-09T23:01:05.520Z,55.56
2022-08-09T23:04:05.556Z,55.84
2022-08-09T23:07:11.240Z,55.55
2022-08-09T23:09:57.104Z,55.53
2022-08-09T23:12:40.224Z,55.76
2022-08-09T23:15:23.520Z,54.96
2022-08-09T23:18:07.008Z,54.38
2022-08-09T23:20:50.037Z,54.59
2022-08-09T23:23:34.705Z,54.73
2022-08-09T23:26:17.767Z,54.76
2022-08-09T23:29:00.872Z,55.76
2022-08-09T23:31:44.214Z,56.98
2022-08-09T23:34:27.439Z,58.19
2022-08-09T23:37:10.664Z,56.10
2022-08-09T23:39:55.210Z,55.81
2022-08-09T23:42:38.404Z,55.73
2022-08-09T23:45:37.206Z,56.27
2022-08-09T23:48:21.537Z,56.23
2022-08-09T23:51:04.863Z,56.56
2022-08-09T23:53:50.631Z,56.59
2022-08-09T23:56:52.540Z,56.98
2022-08-09T23:59:55.827Z,57.81
